createdAt,value
2017-08-27T00:00:05.798Z,20.89
2017-08-27T00:01:05.854Z,20.84
2017-08-27T00:02:05.901Z,20.84
2017-08-27T00:03:05.955Z,20.89
2017-08-27T00:04:06.089Z,20.93
2017-08-27T00:05:06.062Z,20.90
2017-08-27T00:06:06.118Z,20.90
2017-08-27T00:07:06.169Z,20.90
2017-08-27T00:08:06.218Z,20.98
2017-08-27T00:09:06.371Z,20.96
2017-08-27T00:10:06.325Z,20.96
2017-08-27T00:11:06.380Z,21.01
2017-08-27T00:12:06.434Z,21.08
2017-08-27T00:13:06.488Z,21.13
2017-08-27T00:14:06.618Z,21.14
2017-08-27T00:15:06.592Z,21.09
2017-08-27T00:16:06.641Z,21.08
2017-08-27T00:17:06.695Z,21.02
2017-08-27T00:18:06.750Z,21.05
2017-08-27T00:19:06.865Z,21.09
2017-08-27T00:20:06.917Z,21.02
2017-08-27T00:21:06.905Z,20.99
2017-08-27T00:22:06.959Z,21.01
2017-08-27T00:23:07.011Z,21.01
2017-08-27T00:24:07.069Z,20.99
2017-08-27T00:25:07.184Z,21.08
2017-08-27T00:26:07.169Z,20.95
2017-08-27T00:27:07.226Z,21.02
2017-08-27T00:28:07.275Z,20.91
2017-08-27T00:29:07.327Z,20.98
2017-08-27T00:30:07.445Z,21.02
2017-08-27T00:31:07.433Z,20.93
2017-08-27T00:32:07.487Z,20.93
2017-08-27T00:33:07.542Z,20.93
2017-08-27T00:34:07.591Z,20.93
2017-08-27T00:35:07.728Z,20.95
2017-08-27T00:36:07.699Z,20.95
2017-08-27T00:37:07.751Z,20.95
2017-08-27T00:38:07.810Z,20.89
2017-08-27T00:39:07.854Z,20.87
2017-08-27T00:40:07.988Z,20.95
2017-08-27T00:41:07.958Z,20.86
2017-08-27T00:42:08.013Z,20.91
2017-08-27T00:43:08.067Z,20.80
2017-08-27T00:44:08.119Z,20.93
2017-08-27T00:45:08.239Z,20.91
2017-08-27T00:46:08.288Z,20.79
2017-08-27T00:47:08.276Z,20.87
2017-08-27T00:48:08.332Z,20.89
2017-08-27T00:49:08.383Z,20.84
2017-08-27T00:50:08.435Z,20.84
2017-08-27T00:51:08.568Z,20.81
2017-08-27T00:52:08.543Z,20.95
2017-08-27T00:53:08.591Z,20.90
2017-08-27T00:54:08.649Z,20.86
2017-08-27T00:55:08.701Z,20.90
2017-08-27T00:56:08.821Z,20.90
2017-08-27T00:57:08.869Z,20.95
2017-08-27T00:58:08.856Z,20.90
2017-08-27T00:59:08.908Z,20.86
2017-08-27T01:00:08.962Z,20.89
2017-08-27T01:01:09.012Z,20.80
2017-08-27T01:02:09.129Z,20.64
2017-08-27T01:03:09.117Z,20.71
2017-08-27T01:04:09.175Z,20.74
2017-08-27T01:05:09.224Z,20.71
2017-08-27T01:06:09.275Z,20.66
2017-08-27T01:07:09.394Z,20.69
2017-08-27T01:08:09.384Z,20.69
2017-08-27T01:09:09.438Z,20.61
2017-08-27T01:10:09.487Z,20.58
2017-08-27T01:11:09.542Z,20.54
2017-08-27T01:12:09.657Z,20.51
2017-08-27T01:13:09.651Z,20.58
2017-08-27T01:14:09.698Z,20.51
2017-08-27T01:15:09.749Z,20.51
2017-08-27T01:16:09.803Z,20.43
2017-08-27T01:17:09.923Z,20.34
2017-08-27T01:18:09.907Z,20.38
2017-08-27T01:19:09.961Z,20.28
2017-08-27T01:20:10.013Z,20.27
2017-08-27T01:21:10.064Z,20.24
2017-08-27T01:22:10.184Z,20.27
2017-08-27T01:23:10.234Z,20.16
2017-08-27T01:24:10.222Z,20.16
2017-08-27T01:25:10.275Z,20.21
2017-08-27T01:26:10.326Z,20.24
2017-08-27T01:27:10.383Z,20.27
2017-08-27T01:28:10.495Z,20.25
2017-08-27T01:29:10.483Z,20.21
2017-08-27T01:30:10.535Z,20.16
2017-08-27T01:31:10.601Z,20.23
2017-08-27T01:32:10.642Z,20.21
2017-08-27T01:33:10.778Z,20.13
2017-08-27T01:34:10.753Z,20.15
2017-08-27T01:35:10.799Z,20.10
2017-08-27T01:36:10.857Z,20.09
2017-08-27T01:37:10.905Z,20.13
2017-08-27T01:38:11.020Z,20.05
2017-08-27T01:39:11.072Z,19.97
2017-08-27T01:40:11.065Z,19.97
2017-08-27T01:41:11.115Z,19.93
2017-08-27T01:42:11.164Z,19.91
2017-08-27T01:43:11.218Z,19.93
2017-08-27T01:44:11.336Z,19.84
2017-08-27T01:45:11.322Z,19.97
2017-08-27T01:46:11.376Z,19.98
2017-08-27T01:47:11.432Z,19.97
2017-08-27T01:48:11.480Z,19.94
2017-08-27T01:49:11.601Z,19.86
2017-08-27T01:50:11.583Z,19.93
2017-08-27T01:51:11.638Z,19.95
2017-08-27T01:52:11.693Z,19.95
2017-08-27T01:53:11.742Z,19.98
2017-08-27T01:54:11.867Z,20.06
2017-08-27T01:55:11.845Z,20.06
2017-08-27T01:56:11.899Z,20.08
2017-08-27T01:57:11.953Z,20.08
2017-08-27T01:58:12.003Z,20.00
2017-08-27T01:59:12.119Z,19.94
2017-08-27T02:00:12.175Z,19.95
2017-08-27T02:01:12.161Z,19.97
2017-08-27T02:02:12.212Z,19.90
2017-08-27T02:03:12.264Z,19.94
2017-08-27T02:04:12.316Z,19.87
2017-08-27T02:05:12.431Z,19.83
2017-08-27T02:06:12.419Z,19.84
2017-08-27T02:07:12.478Z,19.91
2017-08-27T02:08:12.526Z,19.88
2017-08-27T02:09:12.583Z,19.84
2017-08-27T02:10:12.693Z,19.83
2017-08-27T02:11:12.686Z,19.84
2017-08-27T02:12:12.735Z,19.84
2017-08-27T02:13:12.804Z,19.84
2017-08-27T02:14:12.841Z,19.83
2017-08-27T02:15:12.956Z,19.87
2017-08-27T02:16:12.942Z,19.83
2017-08-27T02:17:13.000Z,19.69
2017-08-27T02:18:13.049Z,19.69
2017-08-27T02:19:13.101Z,19.63
2017-08-27T02:20:13.232Z,19.58
2017-08-27T02:21:13.203Z,19.57
2017-08-27T02:22:13.255Z,19.47
2017-08-27T02:23:13.309Z,19.58
2017-08-27T02:24:13.363Z,19.53
2017-08-27T02:25:13.493Z,19.57
2017-08-27T02:26:13.463Z,19.55
2017-08-27T02:27:13.515Z,19.55
2017-08-27T02:28:13.569Z,19.55
2017-08-27T02:29:13.626Z,19.51
2017-08-27T02:30:13.744Z,19.33
2017-08-27T02:31:13.729Z,19.38
2017-08-27T02:32:13.779Z,19.43
2017-08-27T02:33:13.838Z,19.43
2017-08-27T02:34:13.881Z,19.39
2017-08-27T02:35:14.018Z,19.38
2017-08-27T02:36:13.985Z,19.39
2017-08-27T02:37:14.040Z,19.35
2017-08-27T02:38:14.108Z,19.38
2017-08-27T02:39:14.143Z,19.43
2017-08-27T02:40:14.277Z,19.38
2017-08-27T02:41:14.247Z,19.33
2017-08-27T02:42:14.298Z,19.43
2017-08-27T02:43:14.351Z,19.47
2017-08-27T02:44:14.405Z,19.46
2017-08-27T02:45:15.808Z,19.43
2017-08-27T02:46:14.510Z,19.33
2017-08-27T02:47:14.562Z,19.36
2017-08-27T02:48:14.612Z,19.47
2017-08-27T02:49:14.666Z,19.42
2017-08-27T02:50:14.715Z,19.39
2017-08-27T02:51:14.834Z,19.33
2017-08-27T02:52:14.825Z,19.35
2017-08-27T02:53:14.876Z,19.32
2017-08-27T02:54:14.925Z,19.32
2017-08-27T02:55:14.977Z,19.29
2017-08-27T02:56:15.092Z,19.28
2017-08-27T02:57:15.084Z,19.23
2017-08-27T02:58:15.138Z,19.18
2017-08-27T02:59:15.183Z,19.14
2017-08-27T03:00:15.238Z,19.05
2017-08-27T03:01:15.373Z,19.10
2017-08-27T03:02:15.342Z,19.20
2017-08-27T03:03:15.393Z,19.17
2017-08-27T03:04:15.448Z,19.20
2017-08-27T03:05:15.497Z,19.21
2017-08-27T03:06:15.634Z,19.17
2017-08-27T03:07:15.603Z,19.23
2017-08-27T03:08:15.663Z,19.33
2017-08-27T03:09:15.707Z,19.40
2017-08-27T03:10:15.771Z,19.36
2017-08-27T03:11:15.892Z,19.51
2017-08-27T03:12:15.864Z,19.46
2017-08-27T03:13:15.914Z,19.50
2017-08-27T03:14:15.971Z,19.55
2017-08-27T03:15:16.020Z,19.63
2017-08-27T03:16:16.154Z,19.60
2017-08-27T03:17:16.131Z,19.61
2017-08-27T03:18:16.176Z,19.66
2017-08-27T03:19:16.227Z,19.66
2017-08-27T03:20:16.276Z,19.69
2017-08-27T03:21:16.408Z,19.63
2017-08-27T03:22:16.446Z,19.61
2017-08-27T03:23:16.435Z,19.55
2017-08-27T03:24:16.489Z,19.57
2017-08-27T03:25:16.540Z,19.63
2017-08-27T03:26:16.592Z,19.61
2017-08-27T03:27:16.707Z,19.51
2017-08-27T03:28:16.695Z,19.66
2017-08-27T03:29:16.745Z,19.66
2017-08-27T03:30:16.803Z,19.63
2017-08-27T03:31:16.851Z,19.69
2017-08-27T03:32:16.973Z,19.72
2017-08-27T03:33:16.957Z,19.73
2017-08-27T03:34:17.009Z,19.75
2017-08-27T03:35:17.058Z,19.69
2017-08-27T03:36:17.112Z,19.58
2017-08-27T03:37:17.235Z,19.69
2017-08-27T03:38:17.215Z,19.73
2017-08-27T03:39:17.275Z,19.75
2017-08-27T03:40:17.319Z,19.66
2017-08-27T03:41:17.371Z,19.65
2017-08-27T03:42:17.507Z,19.53
2017-08-27T03:43:17.474Z,19.53
2017-08-27T03:44:17.529Z,19.42
2017-08-27T03:45:17.580Z,19.43
2017-08-27T03:46:17.632Z,19.35
2017-08-27T03:47:17.750Z,19.31
2017-08-27T03:48:17.800Z,19.25
2017-08-27T03:49:17.787Z,19.33
2017-08-27T03:50:17.840Z,19.31
2017-08-27T03:51:17.891Z,19.29
2017-08-27T03:52:17.945Z,19.33
2017-08-27T03:53:18.061Z,19.40
2017-08-27T03:54:18.052Z,19.33
2017-08-27T03:55:18.106Z,19.33
2017-08-27T03:56:18.152Z,19.28
2017-08-27T03:57:18.204Z,19.35
2017-08-27T03:58:18.319Z,19.31
2017-08-27T03:59:18.371Z,19.39
2017-08-27T04:00:18.362Z,19.46
2017-08-27T04:01:18.412Z,19.51
2017-08-27T04:02:18.466Z,19.55
2017-08-27T04:03:18.514Z,19.60
2017-08-27T04:04:18.632Z,19.60
2017-08-27T04:05:18.621Z,19.65
2017-08-27T04:06:18.670Z,19.57
2017-08-27T04:07:18.725Z,19.61
2017-08-27T04:08:18.775Z,19.39
2017-08-27T04:09:18.907Z,19.50
2017-08-27T04:10:18.879Z,19.38
2017-08-27T04:11:18.931Z,19.33
2017-08-27T04:12:18.989Z,19.47
2017-08-27T04:13:19.038Z,19.35
2017-08-27T04:14:19.150Z,19.35
2017-08-27T04:15:19.205Z,19.43
2017-08-27T04:16:19.193Z,19.32
2017-08-27T04:17:19.248Z,19.38
2017-08-27T04:18:19.299Z,19.33
2017-08-27T04:19:19.348Z,19.32
2017-08-27T04:20:19.490Z,19.29
2017-08-27T04:21:19.457Z,19.17
2017-08-27T04:22:19.504Z,19.10
2017-08-27T04:23:19.559Z,19.06
2017-08-27T04:24:19.610Z,19.06
2017-08-27T04:25:19.726Z,18.97
2017-08-27T04:26:19.777Z,18.97
2017-08-27T04:27:19.768Z,18.92
2017-08-27T04:28:19.817Z,18.99
2017-08-27T04:29:19.868Z,18.92
2017-08-27T04:30:19.923Z,18.92
2017-08-27T04:31:20.046Z,18.92
2017-08-27T04:32:20.024Z,18.94
2017-08-27T04:33:20.076Z,18.91
2017-08-27T04:34:20.127Z,18.94
2017-08-27T04:35:20.182Z,18.92
2017-08-27T04:36:20.294Z,18.92
2017-08-27T04:37:20.285Z,18.92
2017-08-27T04:38:20.334Z,18.80
2017-08-27T04:39:20.389Z,18.84
2017-08-27T04:40:20.441Z,18.90
2017-08-27T04:41:20.584Z,18.82
2017-08-27T04:42:20.546Z,18.82
2017-08-27T04:43:20.601Z,18.83
2017-08-27T04:44:20.647Z,18.83
2017-08-27T04:45:20.699Z,18.87
2017-08-27T04:46:20.828Z,18.86
2017-08-27T04:47:20.806Z,18.84
2017-08-27T04:48:20.855Z,18.86
2017-08-27T04:49:20.911Z,18.90
2017-08-27T04:50:20.961Z,18.97
2017-08-27T04:51:21.099Z,18.95
2017-08-27T04:52:21.065Z,18.91
2017-08-27T04:53:21.116Z,19.02
2017-08-27T04:54:21.181Z,18.99
2017-08-27T04:55:21.248Z,18.95
2017-08-27T04:56:21.340Z,18.91
2017-08-27T04:57:21.389Z,18.98
2017-08-27T04:58:21.381Z,18.98
2017-08-27T04:59:21.429Z,18.99
2017-08-27T05:00:21.478Z,18.91
2017-08-27T05:01:21.530Z,18.99
2017-08-27T05:02:21.663Z,19.05
2017-08-27T05:03:21.634Z,19.10
2017-08-27T05:04:21.685Z,19.14
2017-08-27T05:05:21.737Z,19.14
2017-08-27T05:06:21.791Z,19.15
2017-08-27T05:07:21.928Z,19.13
2017-08-27T05:08:21.897Z,19.18
2017-08-27T05:09:21.947Z,19.20
2017-08-27T05:10:21.999Z,19.33
2017-08-27T05:11:22.051Z,19.31
2017-08-27T05:12:22.187Z,19.31
2017-08-27T05:13:22.159Z,19.38
2017-08-27T05:14:22.206Z,19.29
2017-08-27T05:15:22.257Z,19.38
2017-08-27T05:16:22.312Z,19.40
2017-08-27T05:17:22.427Z,19.40
2017-08-27T05:18:22.477Z,19.46
2017-08-27T05:19:22.467Z,19.33
2017-08-27T05:20:22.521Z,19.48
2017-08-27T05:21:22.576Z,19.47
2017-08-27T05:22:22.622Z,19.55
2017-08-27T05:23:22.740Z,19.65
2017-08-27T05:24:22.727Z,19.48
2017-08-27T05:25:22.786Z,19.63
2017-08-27T05:26:22.830Z,19.61
2017-08-27T05:27:22.881Z,19.65
2017-08-27T05:28:23.020Z,19.60
2017-08-27T05:29:22.985Z,19.58
2017-08-27T05:30:23.036Z,19.61
2017-08-27T05:31:23.091Z,19.75
2017-08-27T05:32:23.143Z,19.75
2017-08-27T05:33:23.277Z,19.76
2017-08-27T05:34:23.244Z,19.78
2017-08-27T05:35:23.298Z,19.83
2017-08-27T05:36:23.349Z,19.84
2017-08-27T05:37:23.404Z,19.86
2017-08-27T05:38:23.522Z,19.95
2017-08-27T05:39:23.510Z,19.95
2017-08-27T05:40:23.564Z,19.98
2017-08-27T05:41:23.611Z,19.97
2017-08-27T05:42:23.662Z,19.94
2017-08-27T05:43:23.802Z,19.95
2017-08-27T05:44:23.771Z,19.98
2017-08-27T05:45:23.821Z,20.06
2017-08-27T05:46:23.875Z,20.08
2017-08-27T05:47:23.924Z,20.10
2017-08-27T05:48:24.058Z,20.12
2017-08-27T05:49:24.030Z,20.20
2017-08-27T05:50:24.083Z,20.25
2017-08-27T05:51:24.132Z,20.18
2017-08-27T05:52:24.191Z,20.24
2017-08-27T05:53:24.303Z,20.12
2017-08-27T05:54:24.353Z,20.21
2017-08-27T05:55:24.344Z,20.27
2017-08-27T05:56:24.395Z,20.30
2017-08-27T05:57:24.453Z,20.34
2017-08-27T05:58:24.502Z,20.41
2017-08-27T05:59:24.620Z,20.38
2017-08-27T06:00:24.605Z,20.43
2017-08-27T06:01:24.659Z,20.49
2017-08-27T06:02:24.711Z,20.50
2017-08-27T06:03:24.763Z,20.56
2017-08-27T06:04:24.886Z,20.58
2017-08-27T06:05:24.874Z,20.62
2017-08-27T06:06:24.923Z,20.64
2017-08-27T06:07:24.972Z,20.59
2017-08-27T06:08:25.022Z,20.58
2017-08-27T06:09:25.161Z,20.53
2017-08-27T06:10:25.130Z,20.61
2017-08-27T06:11:25.183Z,20.64
2017-08-27T06:12:25.235Z,20.42
2017-08-27T06:13:25.289Z,20.54
2017-08-27T06:14:25.425Z,20.54
2017-08-27T06:15:25.397Z,20.51
2017-08-27T06:16:25.444Z,20.42
2017-08-27T06:17:25.497Z,20.39
2017-08-27T06:18:25.547Z,20.28
2017-08-27T06:19:25.687Z,20.38
2017-08-27T06:20:25.654Z,20.39
2017-08-27T06:21:25.716Z,20.43
2017-08-27T06:22:25.763Z,20.50
2017-08-27T06:23:25.811Z,20.53
2017-08-27T06:24:25.924Z,20.66
2017-08-27T06:25:25.981Z,20.62
2017-08-27T06:26:25.966Z,20.79
2017-08-27T06:27:26.022Z,20.81
2017-08-27T06:28:26.073Z,20.80
2017-08-27T06:29:26.128Z,20.90
2017-08-27T06:30:26.243Z,21.02
2017-08-27T06:31:26.231Z,20.99
2017-08-27T06:32:26.283Z,21.24
2017-08-27T06:33:26.335Z,21.24
2017-08-27T06:34:26.389Z,21.32
2017-08-27T06:35:26.504Z,21.46
2017-08-27T06:36:26.495Z,21.63
2017-08-27T06:37:26.547Z,21.69
2017-08-27T06:38:26.599Z,21.79
2017-08-27T06:39:26.651Z,21.91
2017-08-27T06:40:26.768Z,22.06
2017-08-27T06:41:26.756Z,21.99
2017-08-27T06:42:26.829Z,22.06
2017-08-27T06:43:26.863Z,22.02
2017-08-27T06:44:26.920Z,21.97
2017-08-27T06:45:27.032Z,21.94
2017-08-27T06:46:27.020Z,21.98
2017-08-27T06:47:27.078Z,22.02
2017-08-27T06:48:27.132Z,22.04
2017-08-27T06:49:27.179Z,22.02
2017-08-27T06:50:27.320Z,21.97
2017-08-27T06:51:27.290Z,21.98
2017-08-27T06:52:27.345Z,22.29
2017-08-27T06:53:27.396Z,22.65
2017-08-27T06:54:27.448Z,23.32
2017-08-27T06:55:27.581Z,23.80
2017-08-27T06:56:27.555Z,24.29
2017-08-27T06:57:27.608Z,24.88
2017-08-27T06:58:27.660Z,25.30
2017-08-27T06:59:27.712Z,25.34
2017-08-27T07:00:27.851Z,25.84
2017-08-27T07:01:27.821Z,25.82
2017-08-27T07:02:27.872Z,25.71
2017-08-27T07:03:28.831Z,26.08
2017-08-27T07:04:27.982Z,26.25
2017-08-27T07:05:28.124Z,26.47
2017-08-27T07:06:28.093Z,26.77
2017-08-27T07:07:28.145Z,26.67
2017-08-27T07:08:28.201Z,26.62
2017-08-27T07:09:28.254Z,26.95
2017-08-27T07:10:28.371Z,26.87
2017-08-27T07:11:28.431Z,27.31
2017-08-27T07:12:28.419Z,27.29
2017-08-27T07:13:28.475Z,26.95
2017-08-27T07:14:28.526Z,27.17
2017-08-27T07:15:28.580Z,27.39
2017-08-27T07:16:28.704Z,27.29
2017-08-27T07:17:28.700Z,27.05
2017-08-27T07:18:28.746Z,27.24
2017-08-27T07:19:28.802Z,27.36
2017-08-27T07:20:29.335Z,27.42
2017-08-27T07:21:28.976Z,27.50
2017-08-27T07:22:28.969Z,27.48
2017-08-27T07:23:29.026Z,27.11
2017-08-27T07:24:29.078Z,26.57
2017-08-27T07:25:29.140Z,26.37
2017-08-27T07:26:29.253Z,25.91
2017-08-27T07:27:29.252Z,25.83
2017-08-27T07:28:29.306Z,25.54
2017-08-27T07:29:29.358Z,25.27
2017-08-27T07:30:29.413Z,24.85
2017-08-27T07:31:29.554Z,24.57
2017-08-27T07:32:29.526Z,24.32
2017-08-27T07:33:29.581Z,24.10
2017-08-27T07:34:29.644Z,24.01
2017-08-27T07:35:29.690Z,23.94
2017-08-27T07:36:29.834Z,23.89
2017-08-27T07:37:29.806Z,23.90
2017-08-27T07:38:29.858Z,23.83
2017-08-27T07:39:29.915Z,23.77
2017-08-27T07:40:29.970Z,23.72
2017-08-27T07:41:30.113Z,23.60
2017-08-27T07:42:30.081Z,23.65
2017-08-27T07:43:30.133Z,23.67
2017-08-27T07:44:30.190Z,23.61
2017-08-27T07:45:30.248Z,23.67
2017-08-27T07:46:30.363Z,23.60
2017-08-27T07:47:30.417Z,23.60
2017-08-27T07:48:30.411Z,23.58
2017-08-27T07:49:30.465Z,23.58
2017-08-27T07:50:30.522Z,23.57
2017-08-27T07:51:30.576Z,23.47
2017-08-27T07:52:30.697Z,23.43
2017-08-27T07:53:30.685Z,23.35
2017-08-27T07:54:30.739Z,23.12
2017-08-27T07:55:30.794Z,23.07
2017-08-27T07:56:30.848Z,22.90
2017-08-27T07:57:30.966Z,22.72
2017-08-27T07:58:30.957Z,22.67
2017-08-27T07:59:31.011Z,22.64
2017-08-27T08:00:31.066Z,22.69
2017-08-27T08:01:31.121Z,22.74
2017-08-27T08:02:31.241Z,22.72
2017-08-27T08:03:31.229Z,22.84
2017-08-27T08:04:31.289Z,22.89
2017-08-27T08:05:31.343Z,23.09
2017-08-27T08:06:31.392Z,23.23
2017-08-27T08:07:31.535Z,23.65
2017-08-27T08:08:31.504Z,24.38
2017-08-27T08:09:31.558Z,24.98
2017-08-27T08:10:31.615Z,24.98
2017-08-27T08:11:31.668Z,24.87
2017-08-27T08:12:31.812Z,25.38
2017-08-27T08:13:31.778Z,25.57
2017-08-27T08:14:31.830Z,25.75
2017-08-27T08:15:31.887Z,25.43
2017-08-27T08:16:31.940Z,25.42
2017-08-27T08:17:32.078Z,25.28
2017-08-27T08:18:32.051Z,25.30
2017-08-27T08:19:32.107Z,25.25
2017-08-27T08:20:32.163Z,25.02
2017-08-27T08:21:32.217Z,24.87
2017-08-27T08:22:32.353Z,24.77
2017-08-27T08:23:32.326Z,24.73
2017-08-27T08:24:32.382Z,24.45
2017-08-27T08:25:32.440Z,24.27
2017-08-27T08:26:32.494Z,24.32
2017-08-27T08:27:32.633Z,24.44
2017-08-27T08:28:32.603Z,24.39
2017-08-27T08:29:32.658Z,24.38
2017-08-27T08:30:32.720Z,24.45
2017-08-27T08:31:32.766Z,24.26
2017-08-27T08:32:32.914Z,24.17
2017-08-27T08:33:32.883Z,24.17
2017-08-27T08:34:32.942Z,24.20
2017-08-27T08:35:32.992Z,24.31
2017-08-27T08:36:33.073Z,24.35
2017-08-27T08:37:33.170Z,24.41
2017-08-27T08:38:33.227Z,24.45
2017-08-27T08:39:33.215Z,24.53
2017-08-27T08:40:33.266Z,24.50
2017-08-27T08:41:33.324Z,24.54
2017-08-27T08:42:33.380Z,24.52
2017-08-27T08:43:33.508Z,24.27
2017-08-27T08:44:33.492Z,24.22
2017-08-27T08:45:33.546Z,24.32
2017-08-27T08:46:33.601Z,24.37
2017-08-27T08:47:33.661Z,24.49
2017-08-27T08:48:33.781Z,24.49
2017-08-27T08:49:33.767Z,24.82
2017-08-27T08:50:33.821Z,25.02
2017-08-27T08:51:33.886Z,25.31
2017-08-27T08:52:33.935Z,25.53
2017-08-27T08:53:34.074Z,25.59
2017-08-27T08:54:34.045Z,25.52
2017-08-27T08:55:34.101Z,25.17
2017-08-27T08:56:34.158Z,25.62
2017-08-27T08:57:34.213Z,25.84
2017-08-27T08:58:34.351Z,25.86
2017-08-27T08:59:34.324Z,25.62
2017-08-27T09:00:34.381Z,25.47
2017-08-27T09:01:34.441Z,25.69
2017-08-27T09:02:34.492Z,25.75
2017-08-27T09:03:34.637Z,26.01
2017-08-27T09:04:34.607Z,25.98
2017-08-27T09:05:34.661Z,25.98
2017-08-27T09:06:34.718Z,25.93
2017-08-27T09:07:34.775Z,25.84
2017-08-27T09:08:34.900Z,26.39
2017-08-27T09:09:34.958Z,26.49
2017-08-27T09:10:34.943Z,26.46
2017-08-27T09:11:35.001Z,25.94
2017-08-27T09:12:35.057Z,25.75
2017-08-27T09:13:35.115Z,25.53
2017-08-27T09:14:35.238Z,25.20
2017-08-27T09:15:35.226Z,25.38
2017-08-27T09:16:35.283Z,25.38
2017-08-27T09:17:35.343Z,25.39
2017-08-27T09:18:35.397Z,25.38
2017-08-27T09:19:35.527Z,25.10
2017-08-27T09:20:35.517Z,25.17
2017-08-27T09:21:35.571Z,25.39
2017-08-27T09:22:35.629Z,25.39
2017-08-27T09:23:35.680Z,25.39
2017-08-27T09:24:35.802Z,25.27
2017-08-27T09:25:35.797Z,25.38
2017-08-27T09:26:35.851Z,25.37
2017-08-27T09:27:35.907Z,25.56
2017-08-27T09:28:35.966Z,25.79
2017-08-27T09:29:36.104Z,25.59
2017-08-27T09:30:36.080Z,25.38
2017-08-27T09:31:36.130Z,25.37
2017-08-27T09:32:36.191Z,25.56
2017-08-27T09:33:36.248Z,25.86
2017-08-27T09:34:36.369Z,26.06
2017-08-27T09:35:36.428Z,25.87
2017-08-27T09:36:36.417Z,25.59
2017-08-27T09:37:36.474Z,25.16
2017-08-27T09:38:36.531Z,24.91
2017-08-27T09:39:36.588Z,24.79
2017-08-27T09:40:36.740Z,24.69
2017-08-27T09:41:36.702Z,24.39
2017-08-27T09:42:36.756Z,24.32
2017-08-27T09:43:36.813Z,24.41
2017-08-27T09:44:36.873Z,24.31
2017-08-27T09:45:36.994Z,24.29
2017-08-27T09:46:36.982Z,24.23
2017-08-27T09:47:37.041Z,24.12
2017-08-27T09:48:37.098Z,24.05
2017-08-27T09:49:37.159Z,24.37
2017-08-27T09:50:37.290Z,24.50
2017-08-27T09:51:37.272Z,24.87
2017-08-27T09:52:37.318Z,25.00
2017-08-27T09:53:37.378Z,25.25
2017-08-27T09:54:37.430Z,25.28
2017-08-27T09:55:37.578Z,25.30
2017-08-27T09:56:37.544Z,25.19
2017-08-27T09:57:37.604Z,25.17
2017-08-27T09:58:37.658Z,25.16
2017-08-27T09:59:37.712Z,25.17
2017-08-27T10:00:37.857Z,25.37
2017-08-27T10:01:37.826Z,25.62
2017-08-27T10:02:37.881Z,25.74
2017-08-27T10:03:37.938Z,25.69
2017-08-27T10:04:37.995Z,25.97
2017-08-27T10:05:38.135Z,26.31
2017-08-27T10:06:38.112Z,26.27
2017-08-27T10:07:38.172Z,26.32
2017-08-27T10:08:38.221Z,25.93
2017-08-27T10:09:38.286Z,25.97
2017-08-27T10:10:38.422Z,26.25
2017-08-27T10:11:38.400Z,26.29
2017-08-27T10:12:38.452Z,26.64
2017-08-27T10:13:38.506Z,27.09
2017-08-27T10:14:38.565Z,27.20
2017-08-27T10:15:38.713Z,27.48
2017-08-27T10:16:38.683Z,27.86
2017-08-27T10:17:38.737Z,27.94
2017-08-27T10:18:38.794Z,27.98
2017-08-27T10:19:38.850Z,27.98
2017-08-27T10:20:38.976Z,27.73
2017-08-27T10:21:39.035Z,27.13
2017-08-27T10:22:39.025Z,26.98
2017-08-27T10:23:39.082Z,26.67
2017-08-27T10:24:39.142Z,26.36
2017-08-27T10:25:39.201Z,26.29
2017-08-27T10:26:39.321Z,26.46
2017-08-27T10:27:39.315Z,26.50
2017-08-27T10:28:39.374Z,26.09
2017-08-27T10:29:39.435Z,26.08
2017-08-27T10:30:39.489Z,25.97
2017-08-27T10:31:39.612Z,26.15
2017-08-27T10:32:39.611Z,26.25
2017-08-27T10:33:39.663Z,26.37
2017-08-27T10:34:39.722Z,26.57
2017-08-27T10:35:39.776Z,26.92
2017-08-27T10:36:39.906Z,27.24
2017-08-27T10:37:39.893Z,27.31
2017-08-27T10:38:39.950Z,27.69
2017-08-27T10:39:40.008Z,27.99
2017-08-27T10:40:40.072Z,28.44
2017-08-27T10:41:40.217Z,28.56
2017-08-27T10:42:40.184Z,28.48
2017-08-27T10:43:40.241Z,28.48
2017-08-27T10:44:40.300Z,28.47
2017-08-27T10:45:40.358Z,28.26
2017-08-27T10:46:40.502Z,28.28
2017-08-27T10:47:40.474Z,28.28
2017-08-27T10:48:40.534Z,28.33
2017-08-27T10:49:40.604Z,28.32
2017-08-27T10:50:40.651Z,28.22
2017-08-27T10:51:40.782Z,28.17
2017-08-27T10:52:40.833Z,28.17
2017-08-27T10:53:40.830Z,28.26
2017-08-27T10:54:40.890Z,28.25
2017-08-27T10:55:40.982Z,28.35
2017-08-27T10:56:41.016Z,28.44
2017-08-27T10:57:41.127Z,28.60
2017-08-27T10:58:41.126Z,28.58
2017-08-27T10:59:41.183Z,28.46
2017-08-27T11:00:41.242Z,28.44
2017-08-27T11:01:41.300Z,28.38
2017-08-27T11:02:41.431Z,27.92
2017-08-27T11:03:41.419Z,27.61
2017-08-27T11:04:41.478Z,27.59
2017-08-27T11:05:41.538Z,27.73
2017-08-27T11:06:41.595Z,28.11
2017-08-27T11:07:41.736Z,28.33
2017-08-27T11:08:41.715Z,27.84
2017-08-27T11:09:41.775Z,27.80
2017-08-27T11:10:41.831Z,27.51
2017-08-27T11:11:41.896Z,27.53
2017-08-27T11:12:42.014Z,27.32
2017-08-27T11:13:42.077Z,27.53
2017-08-27T11:14:42.067Z,27.61
2017-08-27T11:15:42.128Z,27.84
2017-08-27T11:16:42.189Z,27.99
2017-08-27T11:17:42.249Z,27.95
2017-08-27T11:18:42.369Z,27.91
2017-08-27T11:19:42.363Z,27.89
2017-08-27T11:20:42.428Z,27.95
2017-08-27T11:21:42.484Z,27.79
2017-08-27T11:22:42.545Z,27.51
2017-08-27T11:23:42.668Z,27.36
2017-08-27T11:24:42.659Z,27.17
2017-08-27T11:25:42.719Z,27.26
2017-08-27T11:26:42.776Z,27.31
2017-08-27T11:27:42.835Z,27.38
2017-08-27T11:28:42.961Z,27.35
2017-08-27T11:29:42.958Z,27.50
2017-08-27T11:30:43.017Z,27.79
2017-08-27T11:31:43.072Z,27.89
2017-08-27T11:32:43.134Z,27.80
2017-08-27T11:33:43.279Z,27.95
2017-08-27T11:34:43.251Z,28.10
2017-08-27T11:35:43.311Z,28.36
2017-08-27T11:36:43.368Z,28.54
2017-08-27T11:37:43.425Z,28.69
2017-08-27T11:38:43.566Z,28.68
2017-08-27T11:39:43.544Z,28.63
2017-08-27T11:40:43.603Z,28.59
2017-08-27T11:41:43.669Z,28.62
2017-08-27T11:42:43.720Z,28.69
2017-08-27T11:43:43.843Z,28.58
2017-08-27T11:44:43.903Z,28.81
2017-08-27T11:45:43.900Z,29.03
2017-08-27T11:46:43.962Z,29.03
2017-08-27T11:47:44.022Z,29.18
2017-08-27T11:48:44.081Z,29.01
2017-08-27T11:49:44.202Z,28.93
2017-08-27T11:50:44.200Z,28.97
2017-08-27T11:51:44.257Z,29.13
2017-08-27T11:52:44.319Z,29.26
2017-08-27T11:53:44.377Z,29.41
2017-08-27T11:54:44.495Z,29.43
2017-08-27T11:55:44.494Z,29.49
2017-08-27T11:56:44.555Z,29.19
2017-08-27T11:57:44.616Z,29.18
2017-08-27T11:58:44.672Z,28.93
2017-08-27T11:59:44.817Z,28.82
2017-08-27T12:00:44.795Z,28.85
2017-08-27T12:01:44.854Z,28.84
2017-08-27T12:02:44.915Z,29.04
2017-08-27T12:03:44.976Z,29.18
2017-08-27T12:04:45.396Z,28.88
2017-08-27T12:05:45.093Z,28.84
2017-08-27T12:06:45.153Z,28.75
2017-08-27T12:07:45.215Z,28.68
2017-08-27T12:08:45.275Z,28.48
2017-08-27T12:09:45.335Z,28.50
2017-08-27T12:10:45.458Z,28.56
2017-08-27T12:11:45.456Z,28.43
2017-08-27T12:12:45.514Z,28.38
2017-08-27T12:13:45.573Z,28.19
2017-08-27T12:14:45.700Z,28.09
2017-08-27T12:15:45.764Z,27.84
2017-08-27T12:16:45.755Z,27.77
2017-08-27T12:17:45.817Z,27.47
2017-08-27T12:18:45.887Z,27.42
2017-08-27T12:19:45.937Z,27.26
2017-08-27T12:20:46.061Z,27.29
2017-08-27T12:21:46.054Z,27.20
2017-08-27T12:22:46.119Z,26.98
2017-08-27T12:23:46.176Z,26.77
2017-08-27T12:24:46.235Z,26.74
2017-08-27T12:25:46.362Z,26.91
2017-08-27T12:26:46.355Z,26.87
2017-08-27T12:27:46.412Z,27.09
2017-08-27T12:28:47.320Z,27.19
2017-08-27T12:29:46.534Z,27.42
2017-08-27T12:30:46.673Z,27.35
2017-08-27T12:31:46.648Z,27.64
2017-08-27T12:32:46.708Z,27.57
2017-08-27T12:33:46.765Z,27.59
2017-08-27T12:34:46.824Z,27.61
2017-08-27T12:35:46.977Z,27.58
2017-08-27T12:36:46.944Z,27.70
2017-08-27T12:37:47.009Z,27.71
2017-08-27T12:38:47.061Z,27.74
2017-08-27T12:39:47.126Z,27.85
2017-08-27T12:40:47.260Z,28.10
2017-08-27T12:41:47.240Z,28.10
2017-08-27T12:42:47.294Z,28.01
2017-08-27T12:43:47.357Z,27.91
2017-08-27T12:44:47.411Z,27.91
2017-08-27T12:45:47.555Z,27.85
2017-08-27T12:46:47.530Z,27.88
2017-08-27T12:47:47.590Z,27.85
2017-08-27T12:48:47.645Z,27.66
2017-08-27T12:49:47.704Z,27.50
2017-08-27T12:50:47.825Z,27.20
2017-08-27T12:51:47.888Z,27.17
2017-08-27T12:52:47.879Z,27.05